Terminal Aerodrome Forecast
Issued by NWS

Home | Current Version | Previous Version | Text Only | Print | Product List | Glossary On
Versions: 1 2 3 4 5 6 7 8 9 10 11 12 13
000
FTUS46 KLOX 180500
TAFVNY
TAF
KVNY 180532Z 1806/1906 VRB03KT P6SM SKC
     FM181300 14006KT 6SM HZ OVC015
     FM182000 14008KT P6SM SCT025
     FM190500 14007KT P6SM BKN025=

USA.gov is the U.S. government's official web portal to all federal, state and local government web resources and services.